sensor_id;sensor_type;location;lat;lon;timestamp;P1;durP1;ratioP1;P2;durP2;ratioP2
40244;SDS011;25963;42.694;23.600;2023-08-20T00:01:38;6.95;;;6.30;;
40244;SDS011;25963;42.694;23.600;2023-08-20T00:04:04;7.53;;;6.82;;
40244;SDS011;25963;42.694;23.600;2023-08-20T00:06:30;8.23;;;6.85;;
40244;SDS011;25963;42.694;23.600;2023-08-20T00:08:55;8.07;;;6.63;;
40244;SDS011;25963;42.694;23.600;2023-08-20T00:11:21;7.38;;;6.03;;
40244;SDS011;25963;42.694;23.600;2023-08-20T00:13:46;8.73;;;6.45;;
40244;SDS011;25963;42.694;23.600;2023-08-20T00:16:12;8.70;;;6.72;;
40244;SDS011;25963;42.694;23.600;2023-08-20T00:18:38;9.98;;;6.88;;
40244;SDS011;25963;42.694;23.600;2023-08-20T00:21:04;8.40;;;6.63;;
40244;SDS011;25963;42.694;23.600;2023-08-20T00:23:30;7.43;;;6.72;;
40244;SDS011;25963;42.694;23.600;2023-08-20T00:25:56;10.00;;;7.43;;
40244;SDS011;25963;42.694;23.600;2023-08-20T00:28:21;9.02;;;7.03;;
40244;SDS011;25963;42.694;23.600;2023-08-20T00:30:47;7.88;;;7.05;;
40244;SDS011;25963;42.694;23.600;2023-08-20T00:33:14;7.55;;;6.75;;
40244;SDS011;25963;42.694;23.600;2023-08-20T00:35:39;9.65;;;6.97;;
40244;SDS011;25963;42.694;23.600;2023-08-20T00:38:05;9.25;;;7.03;;
40244;SDS011;25963;42.694;23.600;2023-08-20T00:40:30;10.02;;;6.90;;
40244;SDS011;25963;42.694;23.600;2023-08-20T00:42:56;10.85;;;7.10;;
40244;SDS011;25963;42.694;23.600;2023-08-20T00:45:22;8.60;;;6.80;;
40244;SDS011;25963;42.694;23.600;2023-08-20T00:47:48;8.05;;;7.07;;
40244;SDS011;25963;42.694;23.600;2023-08-20T00:50:14;8.77;;;7.50;;
40244;SDS011;25963;42.694;23.600;2023-08-20T00:52:39;7.47;;;6.72;;
40244;SDS011;25963;42.694;23.600;2023-08-20T00:55:09;11.15;;;7.57;;
40244;SDS011;25963;42.694;23.600;2023-08-20T00:57:38;10.07;;;7.72;;
40244;SDS011;25963;42.694;23.600;2023-08-20T01:00:05;9.65;;;7.88;;
40244;SDS011;25963;42.694;23.600;2023-08-20T01:02:32;8.30;;;7.43;;
40244;SDS011;25963;42.694;23.600;2023-08-20T01:04:59;10.60;;;7.82;;
40244;SDS011;25963;42.694;23.600;2023-08-20T01:07:39;9.93;;;7.65;;
40244;SDS011;25963;42.694;23.600;2023-08-20T01:13:11;9.88;;;7.53;;
40244;SDS011;25963;42.694;23.600;2023-08-20T01:15:36;8.88;;;7.97;;
40244;SDS011;25963;42.694;23.600;2023-08-20T01:18:02;16.92;;;7.95;;
40244;SDS011;25963;42.694;23.600;2023-08-20T01:20:30;10.05;;;7.93;;
40244;SDS011;25963;42.694;23.600;2023-08-20T01:26:13;8.57;;;7.35;;
40244;SDS011;25963;42.694;23.600;2023-08-20T01:28:49;17.25;;;9.57;;
40244;SDS011;25963;42.694;23.600;2023-08-20T01:31:15;10.27;;;8.20;;
40244;SDS011;25963;42.694;23.600;2023-08-20T01:33:41;10.85;;;8.07;;
40244;SDS011;25963;42.694;23.600;2023-08-20T01:36:08;8.90;;;8.00;;
40244;SDS011;25963;42.694;23.600;2023-08-20T01:38:36;11.63;;;8.10;;
40244;SDS011;25963;42.694;23.600;2023-08-20T01:41:02;13.68;;;8.68;;
40244;SDS011;25963;42.694;23.600;2023-08-20T01:43:28;9.40;;;8.10;;
40244;SDS011;25963;42.694;23.600;2023-08-20T01:45:53;9.65;;;7.65;;
40244;SDS011;25963;42.694;23.600;2023-08-20T01:48:19;11.98;;;8.18;;
40244;SDS011;25963;42.694;23.600;2023-08-20T01:50:44;9.68;;;8.55;;
40244;SDS011;25963;42.694;23.600;2023-08-20T01:53:11;10.30;;;8.75;;
40244;SDS011;25963;42.694;23.600;2023-08-20T01:55:36;10.45;;;8.65;;
40244;SDS011;25963;42.694;23.600;2023-08-20T01:58:02;8.95;;;8.05;;
40244;SDS011;25963;42.694;23.600;2023-08-20T02:00:27;8.95;;;8.07;;
40244;SDS011;25963;42.694;23.600;2023-08-20T02:02:53;9.82;;;8.07;;
40244;SDS011;25963;42.694;23.600;2023-08-20T02:05:19;10.02;;;8.50;;
40244;SDS011;25963;42.694;23.600;2023-08-20T02:07:44;8.88;;;7.82;;
40244;SDS011;25963;42.694;23.600;2023-08-20T02:10:10;10.93;;;9.02;;
40244;SDS011;25963;42.694;23.600;2023-08-20T02:12:35;10.98;;;8.35;;
40244;SDS011;25963;42.694;23.600;2023-08-20T02:15:01;11.82;;;8.65;;
40244;SDS011;25963;42.694;23.600;2023-08-20T02:17:28;9.63;;;8.18;;
40244;SDS011;25963;42.694;23.600;2023-08-20T02:19:54;9.73;;;8.73;;
40244;SDS011;25963;42.694;23.600;2023-08-20T02:22:19;10.00;;;8.98;;
40244;SDS011;25963;42.694;23.600;2023-08-20T02:24:46;11.98;;;9.07;;
40244;SDS011;25963;42.694;23.600;2023-08-20T02:27:11;12.65;;;9.23;;
40244;SDS011;25963;42.694;23.600;2023-08-20T02:29:37;14.25;;;9.57;;
40244;SDS011;25963;42.694;23.600;2023-08-20T02:32:02;12.27;;;9.73;;
40244;SDS011;25963;42.694;23.600;2023-08-20T02:34:28;10.02;;;9.00;;
40244;SDS011;25963;42.694;23.600;2023-08-20T02:36:53;12.80;;;10.05;;
40244;SDS011;25963;42.694;23.600;2023-08-20T02:39:19;13.15;;;8.95;;
40244;SDS011;25963;42.694;23.600;2023-08-20T02:41:45;11.40;;;9.63;;
40244;SDS011;25963;42.694;23.600;2023-08-20T02:44:11;10.75;;;8.93;;
40244;SDS011;25963;42.694;23.600;2023-08-20T02:46:36;11.38;;;9.25;;
40244;SDS011;25963;42.694;23.600;2023-08-20T02:49:03;11.18;;;9.85;;
40244;SDS011;25963;42.694;23.600;2023-08-20T02:51:28;10.00;;;9.00;;
40244;SDS011;25963;42.694;23.600;2023-08-20T02:53:54;10.57;;;9.25;;
40244;SDS011;25963;42.694;23.600;2023-08-20T02:56:19;11.65;;;9.30;;
40244;SDS011;25963;42.694;23.600;2023-08-20T02:58:45;10.57;;;9.27;;
40244;SDS011;25963;42.694;23.600;2023-08-20T03:01:20;12.90;;;9.93;;
40244;SDS011;25963;42.694;23.600;2023-08-20T03:03:46;11.95;;;10.35;;
40244;SDS011;25963;42.694;23.600;2023-08-20T03:06:11;10.35;;;9.23;;
40244;SDS011;25963;42.694;23.600;2023-08-20T03:08:37;12.35;;;9.85;;
40244;SDS011;25963;42.694;23.600;2023-08-20T03:11:03;14.40;;;10.57;;
40244;SDS011;25963;42.694;23.600;2023-08-20T03:13:28;11.60;;;9.30;;
40244;SDS011;25963;42.694;23.600;2023-08-20T03:15:53;12.85;;;10.98;;
40244;SDS011;25963;42.694;23.600;2023-08-20T03:18:19;10.50;;;9.50;;
40244;SDS011;25963;42.694;23.600;2023-08-20T03:20:44;11.75;;;9.77;;
40244;SDS011;25963;42.694;23.600;2023-08-20T03:23:10;11.75;;;9.73;;
40244;SDS011;25963;42.694;23.600;2023-08-20T03:25:35;11.52;;;10.30;;
40244;SDS011;25963;42.694;23.600;2023-08-20T03:28:01;11.48;;;10.23;;
40244;SDS011;25963;42.694;23.600;2023-08-20T03:30:26;11.95;;;9.52;;
40244;SDS011;25963;42.694;23.600;2023-08-20T03:32:52;14.57;;;9.98;;
40244;SDS011;25963;42.694;23.600;2023-08-20T03:35:18;10.35;;;8.73;;
40244;SDS011;25963;42.694;23.600;2023-08-20T03:37:43;11.30;;;9.77;;
40244;SDS011;25963;42.694;23.600;2023-08-20T03:40:09;17.73;;;10.27;;
40244;SDS011;25963;42.694;23.600;2023-08-20T03:42:35;11.88;;;10.63;;
40244;SDS011;25963;42.694;23.600;2023-08-20T03:45:00;11.00;;;9.52;;
40244;SDS011;25963;42.694;23.600;2023-08-20T03:47:26;15.60;;;10.35;;
40244;SDS011;25963;42.694;23.600;2023-08-20T03:49:51;13.07;;;9.18;;
40244;SDS011;25963;42.694;23.600;2023-08-20T03:52:17;20.05;;;10.43;;
40244;SDS011;25963;42.694;23.600;2023-08-20T03:54:43;25.98;;;11.30;;
40244;SDS011;25963;42.694;23.600;2023-08-20T03:57:08;15.02;;;10.48;;
40244;SDS011;25963;42.694;23.600;2023-08-20T03:59:33;13.10;;;10.48;;
40244;SDS011;25963;42.694;23.600;2023-08-20T04:01:59;13.57;;;10.35;;
40244;SDS011;25963;42.694;23.600;2023-08-20T04:04:24;12.25;;;10.70;;
40244;SDS011;25963;42.694;23.600;2023-08-20T04:06:50;11.27;;;10.13;;
40244;SDS011;25963;42.694;23.600;2023-08-20T04:09:16;15.88;;;11.10;;
40244;SDS011;25963;42.694;23.600;2023-08-20T04:11:42;17.73;;;11.05;;
40244;SDS011;25963;42.694;23.600;2023-08-20T04:14:07;14.35;;;10.60;;
40244;SDS011;25963;42.694;23.600;2023-08-20T04:16:33;12.70;;;10.20;;
40244;SDS011;25963;42.694;23.600;2023-08-20T04:18:58;15.18;;;10.75;;
40244;SDS011;25963;42.694;23.600;2023-08-20T04:21:24;15.98;;;11.25;;
40244;SDS011;25963;42.694;23.600;2023-08-20T04:23:50;12.00;;;10.38;;
40244;SDS011;25963;42.694;23.600;2023-08-20T04:26:15;14.45;;;11.63;;
40244;SDS011;25963;42.694;23.600;2023-08-20T04:28:40;13.82;;;11.38;;
40244;SDS011;25963;42.694;23.600;2023-08-20T04:31:06;13.25;;;10.30;;
40244;SDS011;25963;42.694;23.600;2023-08-20T04:33:31;16.30;;;11.98;;
40244;SDS011;25963;42.694;23.600;2023-08-20T04:35:56;13.32;;;10.23;;
40244;SDS011;25963;42.694;23.600;2023-08-20T04:38:22;14.55;;;11.02;;
40244;SDS011;25963;42.694;23.600;2023-08-20T04:40:48;13.50;;;10.15;;
40244;SDS011;25963;42.694;23.600;2023-08-20T04:43:14;13.75;;;11.18;;
40244;SDS011;25963;42.694;23.600;2023-08-20T04:45:40;13.25;;;10.25;;
40244;SDS011;25963;42.694;23.600;2023-08-20T04:48:06;14.35;;;10.27;;
40244;SDS011;25963;42.694;23.600;2023-08-20T04:50:32;10.95;;;9.40;;
40244;SDS011;25963;42.694;23.600;2023-08-20T04:52:58;10.50;;;9.48;;
40244;SDS011;25963;42.694;23.600;2023-08-20T04:55:25;10.20;;;9.20;;
40244;SDS011;25963;42.694;23.600;2023-08-20T04:57:50;10.27;;;9.23;;
40244;SDS011;25963;42.694;23.600;2023-08-20T05:00:16;10.88;;;9.35;;
40244;SDS011;25963;42.694;23.600;2023-08-20T05:02:41;10.77;;;8.43;;
40244;SDS011;25963;42.694;23.600;2023-08-20T05:05:07;10.15;;;8.75;;
40244;SDS011;25963;42.694;23.600;2023-08-20T05:07:33;10.25;;;9.23;;
40244;SDS011;25963;42.694;23.600;2023-08-20T05:09:58;9.88;;;8.85;;
40244;SDS011;25963;42.694;23.600;2023-08-20T05:12:24;10.75;;;8.55;;
40244;SDS011;25963;42.694;23.600;2023-08-20T05:14:49;9.02;;;8.15;;
40244;SDS011;25963;42.694;23.600;2023-08-20T05:17:14;10.35;;;8.43;;
40244;SDS011;25963;42.694;23.600;2023-08-20T05:19:40;9.00;;;8.10;;
40244;SDS011;25963;42.694;23.600;2023-08-20T05:22:06;8.93;;;8.10;;
40244;SDS011;25963;42.694;23.600;2023-08-20T05:24:31;11.90;;;9.05;;
40244;SDS011;25963;42.694;23.600;2023-08-20T05:27:06;9.23;;;8.27;;
40244;SDS011;25963;42.694;23.600;2023-08-20T05:29:45;9.82;;;8.50;;
40244;SDS011;25963;42.694;23.600;2023-08-20T05:32:10;10.07;;;8.48;;
40244;SDS011;25963;42.694;23.600;2023-08-20T05:34:36;10.30;;;8.82;;
40244;SDS011;25963;42.694;23.600;2023-08-20T05:37:02;10.18;;;8.77;;
40244;SDS011;25963;42.694;23.600;2023-08-20T05:39:29;9.35;;;8.48;;
40244;SDS011;25963;42.694;23.600;2023-08-20T05:41:55;9.88;;;8.93;;
40244;SDS011;25963;42.694;23.600;2023-08-20T05:44:21;10.63;;;8.90;;
40244;SDS011;25963;42.694;23.600;2023-08-20T05:46:47;9.30;;;8.38;;
40244;SDS011;25963;42.694;23.600;2023-08-20T05:49:13;11.07;;;8.88;;
40244;SDS011;25963;42.694;23.600;2023-08-20T05:51:41;10.25;;;9.25;;
40244;SDS011;25963;42.694;23.600;2023-08-20T05:54:07;9.70;;;8.60;;
40244;SDS011;25963;42.694;23.600;2023-08-20T05:56:32;11.38;;;9.40;;
40244;SDS011;25963;42.694;23.600;2023-08-20T05:58:58;11.00;;;9.05;;
40244;SDS011;25963;42.694;23.600;2023-08-20T06:01:26;15.93;;;9.10;;
40244;SDS011;25963;42.694;23.600;2023-08-20T06:03:52;11.30;;;9.27;;
40244;SDS011;25963;42.694;23.600;2023-08-20T06:06:17;12.93;;;10.43;;
40244;SDS011;25963;42.694;23.600;2023-08-20T06:08:42;12.57;;;9.13;;
40244;SDS011;25963;42.694;23.600;2023-08-20T06:11:08;8.98;;;8.07;;
40244;SDS011;25963;42.694;23.600;2023-08-20T06:13:33;10.82;;;9.45;;
40244;SDS011;25963;42.694;23.600;2023-08-20T06:15:59;9.43;;;8.43;;
40244;SDS011;25963;42.694;23.600;2023-08-20T06:18:24;12.07;;;8.90;;
40244;SDS011;25963;42.694;23.600;2023-08-20T06:20:49;11.50;;;9.35;;
40244;SDS011;25963;42.694;23.600;2023-08-20T06:23:15;14.57;;;9.90;;
40244;SDS011;25963;42.694;23.600;2023-08-20T06:25:40;10.88;;;9.50;;
40244;SDS011;25963;42.694;23.600;2023-08-20T06:28:06;9.70;;;8.80;;
40244;SDS011;25963;42.694;23.600;2023-08-20T06:30:31;11.23;;;9.00;;
40244;SDS011;25963;42.694;23.600;2023-08-20T06:32:57;11.27;;;8.90;;
40244;SDS011;25963;42.694;23.600;2023-08-20T06:35:22;10.77;;;8.90;;
40244;SDS011;25963;42.694;23.600;2023-08-20T06:37:47;10.57;;;8.50;;
40244;SDS011;25963;42.694;23.600;2023-08-20T06:40:13;10.52;;;8.50;;
40244;SDS011;25963;42.694;23.600;2023-08-20T06:42:39;10.85;;;9.40;;
40244;SDS011;25963;42.694;23.600;2023-08-20T06:45:04;10.80;;;8.52;;
40244;SDS011;25963;42.694;23.600;2023-08-20T06:47:30;12.52;;;8.30;;
40244;SDS011;25963;42.694;23.600;2023-08-20T06:49:56;10.50;;;8.95;;
40244;SDS011;25963;42.694;23.600;2023-08-20T06:52:21;10.48;;;8.95;;
40244;SDS011;25963;42.694;23.600;2023-08-20T06:54:47;9.68;;;8.68;;
40244;SDS011;25963;42.694;23.600;2023-08-20T06:57:12;11.90;;;8.57;;
40244;SDS011;25963;42.694;23.600;2023-08-20T06:59:37;9.85;;;8.57;;
40244;SDS011;25963;42.694;23.600;2023-08-20T07:02:03;9.45;;;8.27;;
40244;SDS011;25963;42.694;23.600;2023-08-20T07:04:28;11.88;;;9.13;;
40244;SDS011;25963;42.694;23.600;2023-08-20T07:06:54;12.73;;;8.57;;
40244;SDS011;25963;42.694;23.600;2023-08-20T07:09:19;13.25;;;8.48;;
40244;SDS011;25963;42.694;23.600;2023-08-20T07:11:45;10.25;;;8.32;;
40244;SDS011;25963;42.694;23.600;2023-08-20T07:14:11;9.88;;;8.63;;
40244;SDS011;25963;42.694;23.600;2023-08-20T07:16:36;12.77;;;8.68;;
40244;SDS011;25963;42.694;23.600;2023-08-20T07:19:02;9.80;;;8.88;;
40244;SDS011;25963;42.694;23.600;2023-08-20T07:21:27;12.02;;;8.63;;
40244;SDS011;25963;42.694;23.600;2023-08-20T07:23:53;10.40;;;8.30;;
40244;SDS011;25963;42.694;23.600;2023-08-20T07:26:18;11.95;;;8.15;;
40244;SDS011;25963;42.694;23.600;2023-08-20T07:28:44;9.80;;;8.23;;
40244;SDS011;25963;42.694;23.600;2023-08-20T07:31:22;8.95;;;7.35;;
40244;SDS011;25963;42.694;23.600;2023-08-20T07:33:51;8.52;;;7.72;;
40244;SDS011;25963;42.694;23.600;2023-08-20T07:36:17;9.90;;;7.55;;
40244;SDS011;25963;42.694;23.600;2023-08-20T07:38:43;9.60;;;7.07;;
40244;SDS011;25963;42.694;23.600;2023-08-20T07:41:09;7.80;;;6.93;;
40244;SDS011;25963;42.694;23.600;2023-08-20T07:43:36;7.35;;;6.72;;
40244;SDS011;25963;42.694;23.600;2023-08-20T07:46:02;7.85;;;7.05;;
40244;SDS011;25963;42.694;23.600;2023-08-20T07:48:28;4.65;;;4.10;;
40244;SDS011;25963;42.694;23.600;2023-08-20T07:50:53;4.40;;;3.50;;
40244;SDS011;25963;42.694;23.600;2023-08-20T07:53:19;7.50;;;3.78;;
40244;SDS011;25963;42.694;23.600;2023-08-20T07:55:44;7.35;;;4.10;;
40244;SDS011;25963;42.694;23.600;2023-08-20T07:58:10;3.85;;;3.40;;
40244;SDS011;25963;42.694;23.600;2023-08-20T08:00:35;6.15;;;3.90;;
40244;SDS011;25963;42.694;23.600;2023-08-20T08:03:01;5.25;;;4.28;;
40244;SDS011;25963;42.694;23.600;2023-08-20T08:05:27;4.53;;;3.45;;
40244;SDS011;25963;42.694;23.600;2023-08-20T08:07:53;5.45;;;4.07;;
40244;SDS011;25963;42.694;23.600;2023-08-20T08:10:18;5.97;;;3.83;;
40244;SDS011;25963;42.694;23.600;2023-08-20T08:12:44;3.67;;;3.33;;
40244;SDS011;25963;42.694;23.600;2023-08-20T08:15:10;4.20;;;3.80;;
40244;SDS011;25963;42.694;23.600;2023-08-20T08:17:36;6.70;;;4.18;;
40244;SDS011;25963;42.694;23.600;2023-08-20T08:20:01;4.93;;;4.38;;
40244;SDS011;25963;42.694;23.600;2023-08-20T08:22:28;4.80;;;3.80;;
40244;SDS011;25963;42.694;23.600;2023-08-20T08:24:56;4.28;;;3.45;;
40244;SDS011;25963;42.694;23.600;2023-08-20T08:27:22;5.60;;;3.65;;
40244;SDS011;25963;42.694;23.600;2023-08-20T08:29:47;3.90;;;3.50;;
40244;SDS011;25963;42.694;23.600;2023-08-20T08:32:13;4.88;;;4.32;;
40244;SDS011;25963;42.694;23.600;2023-08-20T08:34:38;3.97;;;3.33;;
40244;SDS011;25963;42.694;23.600;2023-08-20T08:37:04;5.22;;;3.92;;
40244;SDS011;25963;42.694;23.600;2023-08-20T08:39:30;5.25;;;3.42;;
40244;SDS011;25963;42.694;23.600;2023-08-20T08:41:56;4.97;;;3.28;;
40244;SDS011;25963;42.694;23.600;2023-08-20T08:44:28;3.60;;;3.30;;
40244;SDS011;25963;42.694;23.600;2023-08-20T08:46:56;3.80;;;3.17;;
40244;SDS011;25963;42.694;23.600;2023-08-20T08:49:22;4.22;;;3.53;;
40244;SDS011;25963;42.694;23.600;2023-08-20T08:51:47;5.10;;;3.72;;
40244;SDS011;25963;42.694;23.600;2023-08-20T08:54:13;3.65;;;3.30;;
40244;SDS011;25963;42.694;23.600;2023-08-20T08:56:40;3.33;;;3.00;;
40244;SDS011;25963;42.694;23.600;2023-08-20T08:59:05;8.07;;;4.15;;
40244;SDS011;25963;42.694;23.600;2023-08-20T09:01:31;4.20;;;3.63;;
40244;SDS011;25963;42.694;23.600;2023-08-20T09:03:57;3.78;;;3.20;;
40244;SDS011;25963;42.694;23.600;2023-08-20T09:06:25;4.25;;;3.50;;
40244;SDS011;25963;42.694;23.600;2023-08-20T09:08:51;3.85;;;3.33;;
40244;SDS011;25963;42.694;23.600;2023-08-20T09:11:35;5.00;;;3.40;;
40244;SDS011;25963;42.694;23.600;2023-08-20T09:14:01;3.75;;;3.40;;
40244;SDS011;25963;42.694;23.600;2023-08-20T09:16:29;4.32;;;3.30;;
40244;SDS011;25963;42.694;23.600;2023-08-20T09:18:57;3.53;;;3.22;;
40244;SDS011;25963;42.694;23.600;2023-08-20T09:21:28;3.78;;;3.40;;
40244;SDS011;25963;42.694;23.600;2023-08-20T09:23:54;4.23;;;3.37;;
40244;SDS011;25963;42.694;23.600;2023-08-20T09:26:23;5.25;;;3.63;;
40244;SDS011;25963;42.694;23.600;2023-08-20T09:28:49;3.78;;;3.45;;
40244;SDS011;25963;42.694;23.600;2023-08-20T09:31:14;7.70;;;3.53;;
40244;SDS011;25963;42.694;23.600;2023-08-20T09:33:54;4.20;;;3.80;;
40244;SDS011;25963;42.694;23.600;2023-08-20T09:36:29;3.50;;;3.17;;
40244;SDS011;25963;42.694;23.600;2023-08-20T09:38:56;5.13;;;3.47;;
40244;SDS011;25963;42.694;23.600;2023-08-20T09:41:21;4.20;;;3.65;;
40244;SDS011;25963;42.694;23.600;2023-08-20T09:43:48;6.38;;;3.80;;
40244;SDS011;25963;42.694;23.600;2023-08-20T09:46:17;4.82;;;3.40;;
40244;SDS011;25963;42.694;23.600;2023-08-20T09:48:49;5.15;;;3.55;;
40244;SDS011;25963;42.694;23.600;2023-08-20T09:51:18;5.80;;;3.40;;
40244;SDS011;25963;42.694;23.600;2023-08-20T09:54:07;5.78;;;3.90;;
40244;SDS011;25963;42.694;23.600;2023-08-20T09:56:44;4.20;;;3.80;;
40244;SDS011;25963;42.694;23.600;2023-08-20T09:59:16;13.90;;;4.25;;
40244;SDS011;25963;42.694;23.600;2023-08-20T10:01:42;7.68;;;3.13;;
40244;SDS011;25963;42.694;23.600;2023-08-20T10:04:08;3.63;;;3.33;;
40244;SDS011;25963;42.694;23.600;2023-08-20T10:06:35;3.35;;;3.05;;
40244;SDS011;25963;42.694;23.600;2023-08-20T10:09:01;3.53;;;3.10;;
40244;SDS011;25963;42.694;23.600;2023-08-20T10:11:28;3.95;;;3.63;;
40244;SDS011;25963;42.694;23.600;2023-08-20T10:13:53;3.92;;;3.60;;
40244;SDS011;25963;42.694;23.600;2023-08-20T10:16:20;5.53;;;3.38;;
40244;SDS011;25963;42.694;23.600;2023-08-20T10:18:47;6.55;;;3.65;;
40244;SDS011;25963;42.694;23.600;2023-08-20T10:21:13;6.22;;;3.75;;
40244;SDS011;25963;42.694;23.600;2023-08-20T10:23:41;4.47;;;3.70;;
40244;SDS011;25963;42.694;23.600;2023-08-20T10:26:08;5.93;;;3.75;;
40244;SDS011;25963;42.694;23.600;2023-08-20T10:28:41;3.58;;;3.28;;
40244;SDS011;25963;42.694;23.600;2023-08-20T10:33:35;4.78;;;3.60;;
40244;SDS011;25963;42.694;23.600;2023-08-20T10:36:09;4.93;;;3.47;;
40244;SDS011;25963;42.694;23.600;2023-08-20T10:38:38;6.72;;;4.00;;
40244;SDS011;25963;42.694;23.600;2023-08-20T10:41:08;4.28;;;3.88;;
40244;SDS011;25963;42.694;23.600;2023-08-20T10:43:38;5.13;;;3.88;;
40244;SDS011;25963;42.694;23.600;2023-08-20T10:48:39;7.85;;;4.45;;
40244;SDS011;25963;42.694;23.600;2023-08-20T10:51:08;6.47;;;3.90;;
40244;SDS011;25963;42.694;23.600;2023-08-20T10:53:42;4.47;;;4.07;;
40244;SDS011;25963;42.694;23.600;2023-08-20T10:56:13;4.22;;;3.83;;
40244;SDS011;25963;42.694;23.600;2023-08-20T10:58:40;4.30;;;3.88;;
40244;SDS011;25963;42.694;23.600;2023-08-20T11:01:22;6.28;;;4.13;;
40244;SDS011;25963;42.694;23.600;2023-08-20T11:03:49;5.85;;;4.70;;
40244;SDS011;25963;42.694;23.600;2023-08-20T11:06:16;5.70;;;4.00;;
40244;SDS011;25963;42.694;23.600;2023-08-20T11:08:43;7.97;;;5.57;;
40244;SDS011;25963;42.694;23.600;2023-08-20T11:11:10;8.30;;;5.35;;
40244;SDS011;25963;42.694;23.600;2023-08-20T11:13:36;7.88;;;4.13;;
40244;SDS011;25963;42.694;23.600;2023-08-20T11:16:03;4.82;;;4.32;;
40244;SDS011;25963;42.694;23.600;2023-08-20T11:21:24;6.65;;;3.95;;
40244;SDS011;25963;42.694;23.600;2023-08-20T11:23:49;4.18;;;3.70;;
40244;SDS011;25963;42.694;23.600;2023-08-20T11:26:15;4.93;;;4.10;;
40244;SDS011;25963;42.694;23.600;2023-08-20T11:28:45;4.30;;;4.00;;
40244;SDS011;25963;42.694;23.600;2023-08-20T11:31:11;4.28;;;3.88;;
40244;SDS011;25963;42.694;23.600;2023-08-20T11:33:40;4.38;;;3.97;;
40244;SDS011;25963;42.694;23.600;2023-08-20T11:36:06;4.55;;;3.90;;
40244;SDS011;25963;42.694;23.600;2023-08-20T11:38:32;4.28;;;3.90;;
40244;SDS011;25963;42.694;23.600;2023-08-20T11:40:57;4.97;;;3.92;;
40244;SDS011;25963;42.694;23.600;2023-08-20T11:43:27;4.13;;;3.72;;
40244;SDS011;25963;42.694;23.600;2023-08-20T11:45:55;4.55;;;4.00;;
40244;SDS011;25963;42.694;23.600;2023-08-20T11:48:21;5.50;;;3.75;;
40244;SDS011;25963;42.694;23.600;2023-08-20T11:50:47;4.65;;;3.70;;
40244;SDS011;25963;42.694;23.600;2023-08-20T11:53:14;4.78;;;4.32;;
40244;SDS011;25963;42.694;23.600;2023-08-20T11:55:45;6.18;;;4.18;;
40244;SDS011;25963;42.694;23.600;2023-08-20T11:58:13;4.00;;;3.15;;
40244;SDS011;25963;42.694;23.600;2023-08-20T12:00:39;4.65;;;3.70;;
40244;SDS011;25963;42.694;23.600;2023-08-20T12:03:06;4.15;;;3.20;;
40244;SDS011;25963;42.694;23.600;2023-08-20T12:05:33;4.13;;;3.70;;
40244;SDS011;25963;42.694;23.600;2023-08-20T12:08:02;4.50;;;3.95;;
40244;SDS011;25963;42.694;23.600;2023-08-20T12:10:29;6.47;;;3.75;;
40244;SDS011;25963;42.694;23.600;2023-08-20T12:12:56;5.05;;;3.90;;
40244;SDS011;25963;42.694;23.600;2023-08-20T12:15:23;5.07;;;3.90;;
40244;SDS011;25963;42.694;23.600;2023-08-20T12:17:58;6.20;;;3.80;;
40244;SDS011;25963;42.694;23.600;2023-08-20T12:20:31;4.05;;;3.00;;
40244;SDS011;25963;42.694;23.600;2023-08-20T12:23:03;3.63;;;3.30;;
40244;SDS011;25963;42.694;23.600;2023-08-20T12:25:31;4.40;;;3.47;;
40244;SDS011;25963;42.694;23.600;2023-08-20T12:28:01;3.65;;;3.35;;
40244;SDS011;25963;42.694;23.600;2023-08-20T12:30:29;3.83;;;3.25;;
40244;SDS011;25963;42.694;23.600;2023-08-20T12:32:55;5.22;;;3.50;;
40244;SDS011;25963;42.694;23.600;2023-08-20T12:35:21;4.93;;;3.40;;
40244;SDS011;25963;42.694;23.600;2023-08-20T12:37:46;4.68;;;3.22;;
40244;SDS011;25963;42.694;23.600;2023-08-20T12:40:12;4.35;;;3.80;;
40244;SDS011;25963;42.694;23.600;2023-08-20T12:42:38;3.83;;;3.42;;
40244;SDS011;25963;42.694;23.600;2023-08-20T12:45:06;5.10;;;3.70;;
40244;SDS011;25963;42.694;23.600;2023-08-20T12:47:33;4.18;;;3.78;;
40244;SDS011;25963;42.694;23.600;2023-08-20T12:49:59;5.07;;;3.13;;
40244;SDS011;25963;42.694;23.600;2023-08-20T12:52:24;6.15;;;3.55;;
40244;SDS011;25963;42.694;23.600;2023-08-20T12:54:50;4.03;;;3.17;;
40244;SDS011;25963;42.694;23.600;2023-08-20T12:57:15;5.25;;;3.40;;
40244;SDS011;25963;42.694;23.600;2023-08-20T12:59:41;4.68;;;3.85;;
40244;SDS011;25963;42.694;23.600;2023-08-20T13:02:06;3.30;;;3.00;;
40244;SDS011;25963;42.694;23.600;2023-08-20T13:04:32;5.75;;;3.40;;
40244;SDS011;25963;42.694;23.600;2023-08-20T13:07:04;4.32;;;3.75;;
40244;SDS011;25963;42.694;23.600;2023-08-20T13:09:32;4.70;;;3.38;;
40244;SDS011;25963;42.694;23.600;2023-08-20T13:12:00;3.50;;;3.10;;
40244;SDS011;25963;42.694;23.600;2023-08-20T13:14:29;5.00;;;3.33;;
40244;SDS011;25963;42.694;23.600;2023-08-20T13:16:55;4.03;;;3.50;;
40244;SDS011;25963;42.694;23.600;2023-08-20T13:19:21;4.32;;;3.28;;
40244;SDS011;25963;42.694;23.600;2023-08-20T13:21:47;3.63;;;3.33;;
40244;SDS011;25963;42.694;23.600;2023-08-20T13:24:13;4.75;;;3.40;;
40244;SDS011;25963;42.694;23.600;2023-08-20T13:26:39;3.78;;;3.47;;
40244;SDS011;25963;42.694;23.600;2023-08-20T13:29:05;3.90;;;3.40;;
40244;SDS011;25963;42.694;23.600;2023-08-20T13:31:30;3.58;;;3.13;;
40244;SDS011;25963;42.694;23.600;2023-08-20T13:33:56;5.50;;;3.63;;
40244;SDS011;25963;42.694;23.600;2023-08-20T13:36:21;4.32;;;3.10;;
40244;SDS011;25963;42.694;23.600;2023-08-20T13:38:47;3.20;;;2.90;;
40244;SDS011;25963;42.694;23.600;2023-08-20T13:41:12;4.88;;;3.30;;
40244;SDS011;25963;42.694;23.600;2023-08-20T13:43:38;5.43;;;3.25;;
40244;SDS011;25963;42.694;23.600;2023-08-20T13:46:03;3.40;;;3.10;;
40244;SDS011;25963;42.694;23.600;2023-08-20T13:48:29;3.67;;;3.10;;
40244;SDS011;25963;42.694;23.600;2023-08-20T13:50:54;3.20;;;2.90;;
40244;SDS011;25963;42.694;23.600;2023-08-20T13:53:19;6.22;;;2.80;;
40244;SDS011;25963;42.694;23.600;2023-08-20T13:55:45;2.90;;;2.55;;
40244;SDS011;25963;42.694;23.600;2023-08-20T13:58:10;3.97;;;3.40;;
40244;SDS011;25963;42.694;23.600;2023-08-20T14:00:36;5.22;;;3.05;;
40244;SDS011;25963;42.694;23.600;2023-08-20T14:03:01;5.10;;;3.28;;
40244;SDS011;25963;42.694;23.600;2023-08-20T14:05:27;5.25;;;3.65;;
40244;SDS011;25963;42.694;23.600;2023-08-20T14:07:56;3.10;;;2.85;;
40244;SDS011;25963;42.694;23.600;2023-08-20T14:10:22;3.63;;;3.33;;
40244;SDS011;25963;42.694;23.600;2023-08-20T14:12:47;4.57;;;2.90;;
40244;SDS011;25963;42.694;23.600;2023-08-20T14:15:13;4.70;;;3.30;;
40244;SDS011;25963;42.694;23.600;2023-08-20T14:17:39;3.15;;;2.92;;
40244;SDS011;25963;42.694;23.600;2023-08-20T14:20:05;3.95;;;3.42;;
40244;SDS011;25963;42.694;23.600;2023-08-20T14:22:32;3.97;;;2.72;;
40244;SDS011;25963;42.694;23.600;2023-08-20T14:24:57;3.95;;;3.13;;
40244;SDS011;25963;42.694;23.600;2023-08-20T14:27:23;4.90;;;3.15;;
40244;SDS011;25963;42.694;23.600;2023-08-20T14:29:48;3.33;;;3.03;;
40244;SDS011;25963;42.694;23.600;2023-08-20T14:32:14;4.68;;;3.15;;
40244;SDS011;25963;42.694;23.600;2023-08-20T14:34:39;3.63;;;3.20;;
40244;SDS011;25963;42.694;23.600;2023-08-20T14:37:05;3.45;;;3.15;;
40244;SDS011;25963;42.694;23.600;2023-08-20T14:39:31;7.85;;;3.22;;